sensor_id;sensor_type;location;lat;lon;timestamp;temperature;humidity
14192;DHT22;7177;48.572;7.838;2023-08-30T00:02:17;13.60;99.90
14192;DHT22;7177;48.572;7.838;2023-08-30T00:04:43;13.60;99.90
14192;DHT22;7177;48.572;7.838;2023-08-30T00:07:08;13.60;99.90
14192;DHT22;7177;48.572;7.838;2023-08-30T00:09:36;13.60;99.90
14192;DHT22;7177;48.572;7.838;2023-08-30T00:12:02;13.70;99.90
14192;DHT22;7177;48.572;7.838;2023-08-30T00:14:27;13.70;99.90
14192;DHT22;7177;48.572;7.838;2023-08-30T00:16:53;13.70;99.90
14192;DHT22;7177;48.572;7.838;2023-08-30T00:19:18;13.70;99.90
14192;DHT22;7177;48.572;7.838;2023-08-30T00:21:44;13.70;99.90
14192;DHT22;7177;48.572;7.838;2023-08-30T00:24:09;13.70;99.90
14192;DHT22;7177;48.572;7.838;2023-08-30T00:26:35;13.70;99.90
14192;DHT22;7177;48.572;7.838;2023-08-30T00:29:00;13.70;99.90
14192;DHT22;7177;48.572;7.838;2023-08-30T00:31:26;13.80;99.90
14192;DHT22;7177;48.572;7.838;2023-08-30T00:33:51;13.80;99.90
14192;DHT22;7177;48.572;7.838;2023-08-30T00:36:17;13.90;99.90
14192;DHT22;7177;48.572;7.838;2023-08-30T00:38:44;13.80;99.90
14192;DHT22;7177;48.572;7.838;2023-08-30T00:41:09;13.80;99.90
14192;DHT22;7177;48.572;7.838;2023-08-30T00:43:35;13.80;99.90
14192;DHT22;7177;48.572;7.838;2023-08-30T00:46:00;13.80;99.90
14192;DHT22;7177;48.572;7.838;2023-08-30T00:48:26;13.80;99.90
14192;DHT22;7177;48.572;7.838;2023-08-30T00:50:52;13.80;99.90
14192;DHT22;7177;48.572;7.838;2023-08-30T00:53:18;13.80;99.90
14192;DHT22;7177;48.572;7.838;2023-08-30T00:55:44;13.80;99.90
14192;DHT22;7177;48.572;7.838;2023-08-30T00:58:10;13.80;99.90
14192;DHT22;7177;48.572;7.838;2023-08-30T01:00:36;13.80;99.90
14192;DHT22;7177;48.572;7.838;2023-08-30T01:03:03;13.80;99.90
14192;DHT22;7177;48.572;7.838;2023-08-30T01:05:30;13.80;99.90
14192;DHT22;7177;48.572;7.838;2023-08-30T01:07:56;13.70;99.90
14192;DHT22;7177;48.572;7.838;2023-08-30T01:10:27;13.70;99.90
14192;DHT22;7177;48.572;7.838;2023-08-30T01:13:06;13.70;99.90
14192;DHT22;7177;48.572;7.838;2023-08-30T01:15:34;13.70;99.90
14192;DHT22;7177;48.572;7.838;2023-08-30T01:18:02;13.70;99.90
14192;DHT22;7177;48.572;7.838;2023-08-30T01:20:29;13.70;99.90
14192;DHT22;7177;48.572;7.838;2023-08-30T01:28:08;13.80;99.90
14192;DHT22;7177;48.572;7.838;2023-08-30T01:30:37;13.80;99.90
14192;DHT22;7177;48.572;7.838;2023-08-30T01:33:05;13.80;99.90
14192;DHT22;7177;48.572;7.838;2023-08-30T01:35:32;13.80;99.90
14192;DHT22;7177;48.572;7.838;2023-08-30T01:38:03;13.80;99.90
14192;DHT22;7177;48.572;7.838;2023-08-30T01:40:35;13.80;99.90
14192;DHT22;7177;48.572;7.838;2023-08-30T01:43:02;13.80;99.90
14192;DHT22;7177;48.572;7.838;2023-08-30T01:45:29;13.80;99.90
14192;DHT22;7177;48.572;7.838;2023-08-30T01:47:56;13.80;99.90
14192;DHT22;7177;48.572;7.838;2023-08-30T01:50:22;13.80;99.90
14192;DHT22;7177;48.572;7.838;2023-08-30T01:52:49;13.80;99.90
14192;DHT22;7177;48.572;7.838;2023-08-30T01:55:15;13.80;99.90
14192;DHT22;7177;48.572;7.838;2023-08-30T01:57:43;13.80;99.90
14192;DHT22;7177;48.572;7.838;2023-08-30T02:00:09;13.70;99.90
14192;DHT22;7177;48.572;7.838;2023-08-30T02:02:34;13.80;99.90
14192;DHT22;7177;48.572;7.838;2023-08-30T02:05:00;13.70;99.90
14192;DHT22;7177;48.572;7.838;2023-08-30T02:07:33;13.70;99.90
14192;DHT22;7177;48.572;7.838;2023-08-30T02:10:04;13.70;99.90
14192;DHT22;7177;48.572;7.838;2023-08-30T02:12:48;13.70;99.90
14192;DHT22;7177;48.572;7.838;2023-08-30T02:15:16;13.70;99.90
14192;DHT22;7177;48.572;7.838;2023-08-30T02:17:42;13.70;99.90
14192;DHT22;7177;48.572;7.838;2023-08-30T02:20:09;13.70;99.90
14192;DHT22;7177;48.572;7.838;2023-08-30T02:22:35;13.70;99.90
14192;DHT22;7177;48.572;7.838;2023-08-30T02:25:01;13.70;99.90
14192;DHT22;7177;48.572;7.838;2023-08-30T02:27:33;13.70;99.90
14192;DHT22;7177;48.572;7.838;2023-08-30T02:29:59;13.70;99.90
14192;DHT22;7177;48.572;7.838;2023-08-30T02:32:24;13.70;99.90
14192;DHT22;7177;48.572;7.838;2023-08-30T02:34:51;13.60;99.90
14192;DHT22;7177;48.572;7.838;2023-08-30T02:37:18;13.60;99.90
14192;DHT22;7177;48.572;7.838;2023-08-30T02:39:44;13.60;99.90
14192;DHT22;7177;48.572;7.838;2023-08-30T02:42:10;13.60;99.90
14192;DHT22;7177;48.572;7.838;2023-08-30T02:44:35;13.60;99.90
14192;DHT22;7177;48.572;7.838;2023-08-30T02:47:01;13.60;99.90
14192;DHT22;7177;48.572;7.838;2023-08-30T02:49:26;13.60;99.90
14192;DHT22;7177;48.572;7.838;2023-08-30T02:51:52;13.60;99.90
14192;DHT22;7177;48.572;7.838;2023-08-30T02:54:17;13.60;99.90
14192;DHT22;7177;48.572;7.838;2023-08-30T02:56:44;13.60;99.90
14192;DHT22;7177;48.572;7.838;2023-08-30T02:59:10;13.60;99.90
14192;DHT22;7177;48.572;7.838;2023-08-30T03:01:36;13.60;99.90
14192;DHT22;7177;48.572;7.838;2023-08-30T03:04:02;13.60;99.90
14192;DHT22;7177;48.572;7.838;2023-08-30T03:06:29;13.50;99.90
14192;DHT22;7177;48.572;7.838;2023-08-30T03:08:54;13.50;99.90
14192;DHT22;7177;48.572;7.838;2023-08-30T03:11:20;13.50;99.90
14192;DHT22;7177;48.572;7.838;2023-08-30T03:13:45;13.50;99.90
14192;DHT22;7177;48.572;7.838;2023-08-30T03:16:12;13.50;99.90
14192;DHT22;7177;48.572;7.838;2023-08-30T03:18:38;13.50;99.90
14192;DHT22;7177;48.572;7.838;2023-08-30T03:21:04;13.40;99.90
14192;DHT22;7177;48.572;7.838;2023-08-30T03:23:31;13.40;99.90
14192;DHT22;7177;48.572;7.838;2023-08-30T03:25:58;13.40;99.90
14192;DHT22;7177;48.572;7.838;2023-08-30T03:28:23;13.40;99.90
14192;DHT22;7177;48.572;7.838;2023-08-30T03:30:49;13.40;99.90
14192;DHT22;7177;48.572;7.838;2023-08-30T03:33:14;13.40;99.90
14192;DHT22;7177;48.572;7.838;2023-08-30T03:35:40;13.40;99.90
14192;DHT22;7177;48.572;7.838;2023-08-30T03:38:05;13.40;99.90
14192;DHT22;7177;48.572;7.838;2023-08-30T03:40:31;13.40;99.90
14192;DHT22;7177;48.572;7.838;2023-08-30T03:42:56;13.50;99.90
14192;DHT22;7177;48.572;7.838;2023-08-30T03:45:22;13.50;99.90
14192;DHT22;7177;48.572;7.838;2023-08-30T03:47:48;13.50;99.90
14192;DHT22;7177;48.572;7.838;2023-08-30T03:50:13;14.00;99.90
14192;DHT22;7177;48.572;7.838;2023-08-30T03:52:39;14.30;99.90
14192;DHT22;7177;48.572;7.838;2023-08-30T03:55:05;14.30;99.90
14192;DHT22;7177;48.572;7.838;2023-08-30T03:57:30;14.50;99.90
14192;DHT22;7177;48.572;7.838;2023-08-30T03:59:56;14.60;99.90
14192;DHT22;7177;48.572;7.838;2023-08-30T04:02:21;14.60;99.90
14192;DHT22;7177;48.572;7.838;2023-08-30T04:04:47;14.60;99.90
14192;DHT22;7177;48.572;7.838;2023-08-30T04:07:16;14.50;99.90
14192;DHT22;7177;48.572;7.838;2023-08-30T04:09:41;14.70;99.90
14192;DHT22;7177;48.572;7.838;2023-08-30T04:12:07;14.90;99.90
14192;DHT22;7177;48.572;7.838;2023-08-30T04:14:32;15.20;99.90
14192;DHT22;7177;48.572;7.838;2023-08-30T04:16:58;15.40;99.90
14192;DHT22;7177;48.572;7.838;2023-08-30T04:19:23;15.20;99.90
14192;DHT22;7177;48.572;7.838;2023-08-30T04:21:49;15.10;99.90
14192;DHT22;7177;48.572;7.838;2023-08-30T04:24:15;14.90;99.90
14192;DHT22;7177;48.572;7.838;2023-08-30T04:26:41;15.10;99.90
14192;DHT22;7177;48.572;7.838;2023-08-30T04:29:06;15.30;99.90
14192;DHT22;7177;48.572;7.838;2023-08-30T04:31:32;15.30;99.90
14192;DHT22;7177;48.572;7.838;2023-08-30T04:33:58;15.30;99.90
14192;DHT22;7177;48.572;7.838;2023-08-30T04:36:23;15.10;99.90
14192;DHT22;7177;48.572;7.838;2023-08-30T04:38:49;14.80;99.90
14192;DHT22;7177;48.572;7.838;2023-08-30T04:41:14;14.60;99.90
14192;DHT22;7177;48.572;7.838;2023-08-30T04:43:40;14.50;99.90
14192;DHT22;7177;48.572;7.838;2023-08-30T04:46:05;14.30;99.90
14192;DHT22;7177;48.572;7.838;2023-08-30T04:48:31;14.20;99.90
14192;DHT22;7177;48.572;7.838;2023-08-30T04:51:01;14.00;99.90
14192;DHT22;7177;48.572;7.838;2023-08-30T04:53:28;13.90;99.90
14192;DHT22;7177;48.572;7.838;2023-08-30T04:55:54;13.90;99.90
14192;DHT22;7177;48.572;7.838;2023-08-30T04:58:19;13.80;99.90
14192;DHT22;7177;48.572;7.838;2023-08-30T05:00:45;13.70;99.90
14192;DHT22;7177;48.572;7.838;2023-08-30T05:03:10;13.70;99.90
14192;DHT22;7177;48.572;7.838;2023-08-30T05:05:36;13.70;99.90
14192;DHT22;7177;48.572;7.838;2023-08-30T05:08:02;13.80;99.90
14192;DHT22;7177;48.572;7.838;2023-08-30T05:10:28;13.80;99.90
14192;DHT22;7177;48.572;7.838;2023-08-30T05:12:54;13.70;99.90
14192;DHT22;7177;48.572;7.838;2023-08-30T05:15:19;13.70;99.90
14192;DHT22;7177;48.572;7.838;2023-08-30T05:17:45;13.60;99.90
14192;DHT22;7177;48.572;7.838;2023-08-30T05:20:11;13.60;99.90
14192;DHT22;7177;48.572;7.838;2023-08-30T05:22:37;13.60;99.90
14192;DHT22;7177;48.572;7.838;2023-08-30T05:25:02;13.60;99.90
14192;DHT22;7177;48.572;7.838;2023-08-30T05:27:28;13.60;99.90
14192;DHT22;7177;48.572;7.838;2023-08-30T05:29:54;13.60;99.90
14192;DHT22;7177;48.572;7.838;2023-08-30T05:32:21;13.60;99.90
14192;DHT22;7177;48.572;7.838;2023-08-30T05:34:47;13.60;99.90
14192;DHT22;7177;48.572;7.838;2023-08-30T05:37:13;13.60;99.90
14192;DHT22;7177;48.572;7.838;2023-08-30T05:39:38;13.60;99.90
14192;DHT22;7177;48.572;7.838;2023-08-30T05:42:04;13.60;99.90
14192;DHT22;7177;48.572;7.838;2023-08-30T05:44:30;13.60;99.90
14192;DHT22;7177;48.572;7.838;2023-08-30T05:46:55;13.70;99.90
14192;DHT22;7177;48.572;7.838;2023-08-30T05:49:21;13.70;99.90
14192;DHT22;7177;48.572;7.838;2023-08-30T05:51:46;13.70;99.90
14192;DHT22;7177;48.572;7.838;2023-08-30T05:54:13;13.70;99.90
14192;DHT22;7177;48.572;7.838;2023-08-30T05:56:38;13.70;99.90
14192;DHT22;7177;48.572;7.838;2023-08-30T05:59:04;13.70;99.90
14192;DHT22;7177;48.572;7.838;2023-08-30T06:01:29;13.70;99.90
14192;DHT22;7177;48.572;7.838;2023-08-30T06:03:55;13.70;99.90
14192;DHT22;7177;48.572;7.838;2023-08-30T06:06:20;13.80;99.90
14192;DHT22;7177;48.572;7.838;2023-08-30T06:08:46;13.80;99.90
14192;DHT22;7177;48.572;7.838;2023-08-30T06:11:12;13.90;99.90
14192;DHT22;7177;48.572;7.838;2023-08-30T06:13:38;14.00;99.90
14192;DHT22;7177;48.572;7.838;2023-08-30T06:16:03;14.00;99.90
14192;DHT22;7177;48.572;7.838;2023-08-30T06:18:31;14.10;99.90
14192;DHT22;7177;48.572;7.838;2023-08-30T06:20:57;14.10;99.90
14192;DHT22;7177;48.572;7.838;2023-08-30T06:23:23;14.10;99.90
14192;DHT22;7177;48.572;7.838;2023-08-30T06:25:58;14.20;99.90
14192;DHT22;7177;48.572;7.838;2023-08-30T06:28:24;14.20;99.90
14192;DHT22;7177;48.572;7.838;2023-08-30T06:30:49;14.20;99.90
14192;DHT22;7177;48.572;7.838;2023-08-30T06:33:16;14.30;99.90
14192;DHT22;7177;48.572;7.838;2023-08-30T06:35:41;14.30;99.90
14192;DHT22;7177;48.572;7.838;2023-08-30T06:38:08;14.40;99.90
14192;DHT22;7177;48.572;7.838;2023-08-30T06:40:33;14.40;99.90
14192;DHT22;7177;48.572;7.838;2023-08-30T06:42:59;14.40;99.90
14192;DHT22;7177;48.572;7.838;2023-08-30T06:45:25;14.40;99.90
14192;DHT22;7177;48.572;7.838;2023-08-30T06:47:50;14.30;99.90
14192;DHT22;7177;48.572;7.838;2023-08-30T06:50:18;14.40;99.90
14192;DHT22;7177;48.572;7.838;2023-08-30T06:52:43;14.50;99.90
14192;DHT22;7177;48.572;7.838;2023-08-30T06:55:09;14.70;99.90
14192;DHT22;7177;48.572;7.838;2023-08-30T06:57:34;14.80;99.90
14192;DHT22;7177;48.572;7.838;2023-08-30T07:00:00;14.90;99.90
14192;DHT22;7177;48.572;7.838;2023-08-30T07:02:37;14.90;99.90
14192;DHT22;7177;48.572;7.838;2023-08-30T07:05:02;14.90;99.90
14192;DHT22;7177;48.572;7.838;2023-08-30T07:07:30;14.90;99.90
14192;DHT22;7177;48.572;7.838;2023-08-30T07:09:55;15.00;99.90
14192;DHT22;7177;48.572;7.838;2023-08-30T07:12:21;15.10;99.90
14192;DHT22;7177;48.572;7.838;2023-08-30T07:14:46;15.20;99.90
14192;DHT22;7177;48.572;7.838;2023-08-30T07:17:12;15.30;99.90
14192;DHT22;7177;48.572;7.838;2023-08-30T07:19:38;15.40;99.90
14192;DHT22;7177;48.572;7.838;2023-08-30T07:22:03;15.50;99.90
14192;DHT22;7177;48.572;7.838;2023-08-30T07:24:29;15.60;99.90
14192;DHT22;7177;48.572;7.838;2023-08-30T07:26:55;15.80;99.90
14192;DHT22;7177;48.572;7.838;2023-08-30T07:29:20;16.00;99.90
14192;DHT22;7177;48.572;7.838;2023-08-30T07:31:46;16.10;99.90
14192;DHT22;7177;48.572;7.838;2023-08-30T07:34:12;16.30;99.90
14192;DHT22;7177;48.572;7.838;2023-08-30T07:36:38;16.30;99.90
14192;DHT22;7177;48.572;7.838;2023-08-30T07:39:03;16.30;99.90
14192;DHT22;7177;48.572;7.838;2023-08-30T07:41:29;16.40;99.90
14192;DHT22;7177;48.572;7.838;2023-08-30T07:43:54;16.40;99.90
14192;DHT22;7177;48.572;7.838;2023-08-30T07:46:20;16.30;99.90
14192;DHT22;7177;48.572;7.838;2023-08-30T07:48:45;16.30;99.90
14192;DHT22;7177;48.572;7.838;2023-08-30T07:51:11;16.40;99.90
14192;DHT22;7177;48.572;7.838;2023-08-30T07:53:36;16.80;99.90
14192;DHT22;7177;48.572;7.838;2023-08-30T07:56:02;17.00;99.90
14192;DHT22;7177;48.572;7.838;2023-08-30T07:58:28;17.10;99.90
14192;DHT22;7177;48.572;7.838;2023-08-30T08:00:53;17.10;99.90
14192;DHT22;7177;48.572;7.838;2023-08-30T08:03:22;17.30;99.90
14192;DHT22;7177;48.572;7.838;2023-08-30T08:05:47;17.40;99.90
14192;DHT22;7177;48.572;7.838;2023-08-30T08:08:13;17.40;99.90
14192;DHT22;7177;48.572;7.838;2023-08-30T08:10:40;17.60;99.90
14192;DHT22;7177;48.572;7.838;2023-08-30T08:13:05;17.70;99.90
14192;DHT22;7177;48.572;7.838;2023-08-30T08:15:31;17.70;99.90
14192;DHT22;7177;48.572;7.838;2023-08-30T08:17:57;17.80;99.90
14192;DHT22;7177;48.572;7.838;2023-08-30T08:20:22;17.90;99.90
14192;DHT22;7177;48.572;7.838;2023-08-30T08:22:48;18.30;99.90
14192;DHT22;7177;48.572;7.838;2023-08-30T08:25:14;18.50;99.90
14192;DHT22;7177;48.572;7.838;2023-08-30T08:27:39;18.80;99.90
14192;DHT22;7177;48.572;7.838;2023-08-30T08:30:06;18.80;99.90
14192;DHT22;7177;48.572;7.838;2023-08-30T08:32:31;18.80;99.90
14192;DHT22;7177;48.572;7.838;2023-08-30T08:34:57;18.60;99.90
14192;DHT22;7177;48.572;7.838;2023-08-30T08:37:23;18.70;99.90
14192;DHT22;7177;48.572;7.838;2023-08-30T08:39:49;18.90;99.90
14192;DHT22;7177;48.572;7.838;2023-08-30T08:42:18;19.20;99.90
14192;DHT22;7177;48.572;7.838;2023-08-30T08:44:43;19.30;99.90
14192;DHT22;7177;48.572;7.838;2023-08-30T08:47:11;19.40;99.90
14192;DHT22;7177;48.572;7.838;2023-08-30T08:49:37;19.50;99.90
14192;DHT22;7177;48.572;7.838;2023-08-30T08:52:04;19.70;99.90
14192;DHT22;7177;48.572;7.838;2023-08-30T08:54:29;19.90;99.90
14192;DHT22;7177;48.572;7.838;2023-08-30T08:56:55;20.20;99.90
14192;DHT22;7177;48.572;7.838;2023-08-30T08:59:21;20.30;99.90
14192;DHT22;7177;48.572;7.838;2023-08-30T09:01:49;20.60;99.90
14192;DHT22;7177;48.572;7.838;2023-08-30T09:04:14;20.50;99.90
14192;DHT22;7177;48.572;7.838;2023-08-30T09:06:40;20.60;99.90
14192;DHT22;7177;48.572;7.838;2023-08-30T09:09:06;20.90;99.90
14192;DHT22;7177;48.572;7.838;2023-08-30T09:11:33;21.20;99.90
14192;DHT22;7177;48.572;7.838;2023-08-30T09:13:59;21.00;99.90
14192;DHT22;7177;48.572;7.838;2023-08-30T09:16:25;20.60;99.90
14192;DHT22;7177;48.572;7.838;2023-08-30T09:19:04;20.10;99.90
14192;DHT22;7177;48.572;7.838;2023-08-30T09:21:30;20.00;99.90
14192;DHT22;7177;48.572;7.838;2023-08-30T09:23:59;20.00;99.90
14192;DHT22;7177;48.572;7.838;2023-08-30T09:26:26;20.10;99.90
14192;DHT22;7177;48.572;7.838;2023-08-30T09:28:54;20.40;99.90
14192;DHT22;7177;48.572;7.838;2023-08-30T09:31:19;20.50;99.90
14192;DHT22;7177;48.572;7.838;2023-08-30T09:33:45;20.40;99.90
14192;DHT22;7177;48.572;7.838;2023-08-30T09:36:13;20.30;99.90
14192;DHT22;7177;48.572;7.838;2023-08-30T09:38:39;20.30;99.90
14192;DHT22;7177;48.572;7.838;2023-08-30T09:41:05;20.70;99.90
14192;DHT22;7177;48.572;7.838;2023-08-30T09:43:32;20.90;99.90
14192;DHT22;7177;48.572;7.838;2023-08-30T09:46:03;21.20;99.90
14192;DHT22;7177;48.572;7.838;2023-08-30T09:48:29;20.90;99.90
14192;DHT22;7177;48.572;7.838;2023-08-30T09:50:57;20.90;99.90
14192;DHT22;7177;48.572;7.838;2023-08-30T09:53:25;21.20;99.90
14192;DHT22;7177;48.572;7.838;2023-08-30T09:55:54;21.80;99.90
14192;DHT22;7177;48.572;7.838;2023-08-30T09:58:21;22.20;99.90
14192;DHT22;7177;48.572;7.838;2023-08-30T10:00:48;22.40;99.90
14192;DHT22;7177;48.572;7.838;2023-08-30T10:03:15;22.70;99.90
14192;DHT22;7177;48.572;7.838;2023-08-30T10:05:44;22.80;99.90
14192;DHT22;7177;48.572;7.838;2023-08-30T10:08:11;22.70;99.90
14192;DHT22;7177;48.572;7.838;2023-08-30T10:10:37;22.50;99.90
14192;DHT22;7177;48.572;7.838;2023-08-30T10:13:05;22.70;99.90
14192;DHT22;7177;48.572;7.838;2023-08-30T10:15:33;23.10;99.90
14192;DHT22;7177;48.572;7.838;2023-08-30T10:18:01;23.40;99.90
14192;DHT22;7177;48.572;7.838;2023-08-30T10:20:28;23.50;99.90
14192;DHT22;7177;48.572;7.838;2023-08-30T10:22:55;23.10;99.90
14192;DHT22;7177;48.572;7.838;2023-08-30T10:25:26;22.40;99.90
14192;DHT22;7177;48.572;7.838;2023-08-30T10:27:53;21.90;99.90
14192;DHT22;7177;48.572;7.838;2023-08-30T10:30:21;22.10;99.90
14192;DHT22;7177;48.572;7.838;2023-08-30T10:32:47;22.80;99.90
14192;DHT22;7177;48.572;7.838;2023-08-30T10:35:18;23.30;99.90
14192;DHT22;7177;48.572;7.838;2023-08-30T10:37:58;24.00;99.90
14192;DHT22;7177;48.572;7.838;2023-08-30T10:40:24;24.50;99.90
14192;DHT22;7177;48.572;7.838;2023-08-30T10:43:02;24.60;99.90
14192;DHT22;7177;48.572;7.838;2023-08-30T10:45:28;24.90;99.90
14192;DHT22;7177;48.572;7.838;2023-08-30T10:47:57;25.20;99.90
14192;DHT22;7177;48.572;7.838;2023-08-30T10:50:30;24.90;99.90
14192;DHT22;7177;48.572;7.838;2023-08-30T10:52:57;24.30;99.90
14192;DHT22;7177;48.572;7.838;2023-08-30T10:55:23;23.70;99.90
14192;DHT22;7177;48.572;7.838;2023-08-30T10:57:59;23.30;99.90
14192;DHT22;7177;48.572;7.838;2023-08-30T11:00:27;23.60;99.90
14192;DHT22;7177;48.572;7.838;2023-08-30T11:02:53;23.80;99.90
14192;DHT22;7177;48.572;7.838;2023-08-30T11:05:21;23.40;99.90
14192;DHT22;7177;48.572;7.838;2023-08-30T11:07:48;22.80;99.90
14192;DHT22;7177;48.572;7.838;2023-08-30T11:10:16;22.50;99.90
14192;DHT22;7177;48.572;7.838;2023-08-30T11:12:43;22.30;99.90
14192;DHT22;7177;48.572;7.838;2023-08-30T11:15:10;22.00;99.90
14192;DHT22;7177;48.572;7.838;2023-08-30T11:17:36;21.60;99.90
14192;DHT22;7177;48.572;7.838;2023-08-30T11:20:13;21.50;99.90
14192;DHT22;7177;48.572;7.838;2023-08-30T11:22:43;21.10;99.90
14192;DHT22;7177;48.572;7.838;2023-08-30T11:25:10;21.00;99.90
14192;DHT22;7177;48.572;7.838;2023-08-30T11:27:37;20.70;99.90
14192;DHT22;7177;48.572;7.838;2023-08-30T11:30:04;20.60;99.90
14192;DHT22;7177;48.572;7.838;2023-08-30T11:32:41;20.50;99.90
14192;DHT22;7177;48.572;7.838;2023-08-30T11:35:08;20.60;99.90
14192;DHT22;7177;48.572;7.838;2023-08-30T11:37:34;20.70;99.90
14192;DHT22;7177;48.572;7.838;2023-08-30T11:40:04;20.80;99.90
14192;DHT22;7177;48.572;7.838;2023-08-30T11:42:31;21.30;99.90
14192;DHT22;7177;48.572;7.838;2023-08-30T11:44:58;22.20;99.90
14192;DHT22;7177;48.572;7.838;2023-08-30T11:47:24;22.30;99.90
14192;DHT22;7177;48.572;7.838;2023-08-30T11:49:55;22.60;99.90
14192;DHT22;7177;48.572;7.838;2023-08-30T11:52:21;22.90;99.90
14192;DHT22;7177;48.572;7.838;2023-08-30T11:54:50;22.90;99.90
14192;DHT22;7177;48.572;7.838;2023-08-30T11:57:16;23.20;99.90
14192;DHT22;7177;48.572;7.838;2023-08-30T11:59:42;23.40;99.90
14192;DHT22;7177;48.572;7.838;2023-08-30T12:02:08;23.50;99.90
14192;DHT22;7177;48.572;7.838;2023-08-30T12:04:41;24.00;99.90
14192;DHT22;7177;48.572;7.838;2023-08-30T12:07:07;24.70;99.90
14192;DHT22;7177;48.572;7.838;2023-08-30T12:09:33;25.20;99.90
14192;DHT22;7177;48.572;7.838;2023-08-30T12:12:25;25.50;99.90
14192;DHT22;7177;48.572;7.838;2023-08-30T12:14:57;26.10;99.90
14192;DHT22;7177;48.572;7.838;2023-08-30T12:17:23;26.30;99.90
14192;DHT22;7177;48.572;7.838;2023-08-30T12:19:56;26.70;99.90
14192;DHT22;7177;48.572;7.838;2023-08-30T12:22:21;26.90;99.90
14192;DHT22;7177;48.572;7.838;2023-08-30T12:24:47;26.90;99.90
14192;DHT22;7177;48.572;7.838;2023-08-30T12:27:13;26.50;99.90
14192;DHT22;7177;48.572;7.838;2023-08-30T12:29:39;26.20;99.90
14192;DHT22;7177;48.572;7.838;2023-08-30T12:32:05;26.00;99.90
14192;DHT22;7177;48.572;7.838;2023-08-30T12:34:31;26.10;99.90
14192;DHT22;7177;48.572;7.838;2023-08-30T12:36:57;26.70;99.90
14192;DHT22;7177;48.572;7.838;2023-08-30T12:39:23;26.90;99.90
14192;DHT22;7177;48.572;7.838;2023-08-30T12:41:48;26.40;99.90
14192;DHT22;7177;48.572;7.838;2023-08-30T12:44:14;25.50;99.90
14192;DHT22;7177;48.572;7.838;2023-08-30T12:46:39;24.90;99.90
14192;DHT22;7177;48.572;7.838;2023-08-30T12:49:05;24.80;99.90
14192;DHT22;7177;48.572;7.838;2023-08-30T12:51:31;24.90;99.90
14192;DHT22;7177;48.572;7.838;2023-08-30T12:53:56;24.70;99.90
14192;DHT22;7177;48.572;7.838;2023-08-30T12:56:22;23.90;99.90
14192;DHT22;7177;48.572;7.838;2023-08-30T12:58:47;23.00;99.90
14192;DHT22;7177;48.572;7.838;2023-08-30T13:01:13;22.60;99.90
14192;DHT22;7177;48.572;7.838;2023-08-30T13:03:38;22.40;99.90
14192;DHT22;7177;48.572;7.838;2023-08-30T13:06:04;22.30;99.90
14192;DHT22;7177;48.572;7.838;2023-08-30T13:08:30;22.30;99.90
14192;DHT22;7177;48.572;7.838;2023-08-30T13:10:59;22.30;99.90
14192;DHT22;7177;48.572;7.838;2023-08-30T13:13:25;22.20;99.90
14192;DHT22;7177;48.572;7.838;2023-08-30T13:15:51;22.60;99.90
14192;DHT22;7177;48.572;7.838;2023-08-30T13:18:16;22.60;99.90
14192;DHT22;7177;48.572;7.838;2023-08-30T13:20:42;22.80;99.90
14192;DHT22;7177;48.572;7.838;2023-08-30T13:23:07;23.00;99.90
14192;DHT22;7177;48.572;7.838;2023-08-30T13:25:33;23.10;99.90
14192;DHT22;7177;48.572;7.838;2023-08-30T13:27:58;23.30;99.90
14192;DHT22;7177;48.572;7.838;2023-08-30T13:30:24;23.50;99.90
14192;DHT22;7177;48.572;7.838;2023-08-30T13:32:49;23.60;99.90
14192;DHT22;7177;48.572;7.838;2023-08-30T13:35:15;23.70;99.90
14192;DHT22;7177;48.572;7.838;2023-08-30T13:37:40;24.20;99.90
14192;DHT22;7177;48.572;7.838;2023-08-30T13:40:06;24.80;99.90
14192;DHT22;7177;48.572;7.838;2023-08-30T13:42:33;25.40;99.90
14192;DHT22;7177;48.572;7.838;2023-08-30T13:44:58;25.70;99.90
14192;DHT22;7177;48.572;7.838;2023-08-30T13:47:24;25.60;99.90
14192;DHT22;7177;48.572;7.838;2023-08-30T13:49:49;25.00;99.90
14192;DHT22;7177;48.572;7.838;2023-08-30T13:52:15;24.40;99.90
14192;DHT22;7177;48.572;7.838;2023-08-30T13:54:41;24.50;99.90
14192;DHT22;7177;48.572;7.838;2023-08-30T13:57:06;25.10;99.90
14192;DHT22;7177;48.572;7.838;2023-08-30T13:59:32;25.20;99.90
14192;DHT22;7177;48.572;7.838;2023-08-30T14:01:57;24.90;99.90
14192;DHT22;7177;48.572;7.838;2023-08-30T14:04:24;24.50;99.90
14192;DHT22;7177;48.572;7.838;2023-08-30T14:06:51;24.00;99.90
14192;DHT22;7177;48.572;7.838;2023-08-30T14:09:16;23.80;99.90
14192;DHT22;7177;48.572;7.838;2023-08-30T14:11:42;23.50;99.90
14192;DHT22;7177;48.572;7.838;2023-08-30T14:14:07;23.40;99.90
14192;DHT22;7177;48.572;7.838;2023-08-30T14:16:33;23.20;99.90
14192;DHT22;7177;48.572;7.838;2023-08-30T14:18:58;23.10;99.90
14192;DHT22;7177;48.572;7.838;2023-08-30T14:21:30;23.20;99.90
14192;DHT22;7177;48.572;7.838;2023-08-30T14:23:56;23.10;99.90
14192;DHT22;7177;48.572;7.838;2023-08-30T14:26:21;23.30;99.90
14192;DHT22;7177;48.572;7.838;2023-08-30T14:28:47;23.80;99.90
14192;DHT22;7177;48.572;7.838;2023-08-30T14:31:12;23.80;99.90
14192;DHT22;7177;48.572;7.838;2023-08-30T14:33:43;23.80;99.90
14192;DHT22;7177;48.572;7.838;2023-08-30T14:36:10;24.00;99.90
14192;DHT22;7177;48.572;7.838;2023-08-30T14:38:36;24.30;99.90
14192;DHT22;7177;48.572;7.838;2023-08-30T14:41:02;24.50;99.90
14192;DHT22;7177;48.572;7.838;2023-08-30T14:43:28;25.00;99.90
14192;DHT22;7177;48.572;7.838;2023-08-30T14:46:05;25.50;99.90
14192;DHT22;7177;48.572;7.838;2023-08-30T14:48:31;25.60;99.90
14192;DHT22;7177;48.572;7.838;2023-08-30T14:50:58;25.50;99.90
14192;DHT22;7177;48.572;7.838;2023-08-30T14:53:24;25.50;99.90
14192;DHT22;7177;48.572;7.838;2023-08-30T14:55:49;25.40;99.90
14192;DHT22;7177;48.572;7.838;2023-08-30T14:58:15;25.40;99.90
14192;DHT22;7177;48.572;7.838;2023-08-30T15:00:41;25.20;99.90
14192;DHT22;7177;48.572;7.838;2023-08-30T15:03:06;25.10;99.90
14192;DHT22;7177;48.572;7.838;2023-08-30T15:05:32;25.00;99.90
14192;DHT22;7177;48.572;7.838;2023-08-30T15:07:57;24.80;99.90
14192;DHT22;7177;48.572;7.838;2023-08-30T15:10:23;24.90;99.90
14192;DHT22;7177;48.572;7.838;2023-08-30T15:12:49;25.10;99.90
14192;DHT22;7177;48.572;7.838;2023-08-30T15:15:15;24.90;99.90
14192;DHT22;7177;48.572;7.838;2023-08-30T15:17:40;24.60;99.90
14192;DHT22;7177;48.572;7.838;2023-08-30T15:20:07;24.10;99.90
14192;DHT22;7177;48.572;7.838;2023-08-30T15:22:33;23.70;99.90
14192;DHT22;7177;48.572;7.838;2023-08-30T15:24:59;23.30;99.90
14192;DHT22;7177;48.572;7.838;2023-08-30T15:27:27;23.30;99.90
14192;DHT22;7177;48.572;7.838;2023-08-30T15:29:52;23.60;99.90
14192;DHT22;7177;48.572;7.838;2023-08-30T15:32:21;23.90;99.90
14192;DHT22;7177;48.572;7.838;2023-08-30T15:34:46;24.00;99.90
14192;DHT22;7177;48.572;7.838;2023-08-30T15:37:12;24.00;99.90
14192;DHT22;7177;48.572;7.838;2023-08-30T15:39:40;23.80;99.90
14192;DHT22;7177;48.572;7.838;2023-08-30T15:42:05;23.50;99.90
14192;DHT22;7177;48.572;7.838;2023-08-30T15:44:31;23.20;99.90
14192;DHT22;7177;48.572;7.838;2023-08-30T15:46:56;22.90;99.90